createdAt,value
2023-02-06T00:01:28.222Z,5.40
2023-02-06T00:03:56.197Z,5.40
2023-02-06T00:06:24.290Z,5.40
2023-02-06T00:08:52.390Z,5.30
2023-02-06T00:11:22.925Z,5.30
2023-02-06T00:13:51.029Z,5.30
2023-02-06T00:16:20.971Z,5.20
2023-02-06T00:18:50.029Z,5.10
2023-02-06T00:21:20.175Z,5.10
2023-02-06T00:23:48.180Z,5.10
2023-02-06T00:26:16.424Z,5.10
2023-02-06T00:28:46.567Z,5.30
2023-02-06T00:31:15.833Z,5.20
2023-02-06T00:33:43.873Z,5.20
2023-02-06T00:36:12.181Z,5.10
2023-02-06T00:38:40.950Z,5.10
2023-02-06T00:41:08.939Z,5.10
2023-02-06T00:43:37.655Z,5.10
2023-02-06T00:46:07.317Z,5.10
2023-02-06T00:48:35.277Z,5.10
2023-02-06T00:51:04.575Z,5.20
2023-02-06T00:53:32.568Z,5.20
2023-02-06T00:56:00.687Z,5.30
2023-02-06T00:58:28.644Z,5.30
2023-02-06T01:00:56.627Z,5.30
2023-02-06T01:03:26.234Z,5.30
2023-02-06T01:05:54.590Z,5.30
2023-02-06T01:08:23.165Z,5.30
2023-02-06T01:10:53.041Z,5.30
2023-02-06T01:13:21.041Z,5.40
2023-02-06T01:15:51.111Z,5.30
2023-02-06T01:18:19.329Z,5.30
2023-02-06T01:20:48.624Z,5.30
2023-02-06T01:23:16.590Z,5.20
2023-02-06T01:25:45.390Z,5.20
2023-02-06T01:28:13.363Z,5.10
2023-02-06T01:30:41.366Z,5.10
2023-02-06T01:33:09.768Z,5.10
2023-02-06T01:35:38.615Z,5.00
2023-02-06T01:38:09.933Z,5.00
2023-02-06T01:40:38.917Z,5.00
2023-02-06T01:43:12.064Z,5.00
2023-02-06T01:45:45.727Z,5.00
2023-02-06T01:48:20.423Z,5.00
2023-02-06T01:50:54.168Z,5.00
2023-02-06T01:53:24.979Z,5.10
2023-02-06T01:55:56.023Z,5.10
2023-02-06T01:58:29.286Z,5.10
2023-02-06T02:01:00.145Z,5.10
2023-02-06T02:03:29.647Z,5.00
2023-02-06T02:06:00.993Z,5.00
2023-02-06T02:08:35.082Z,5.00
2023-02-06T02:11:05.285Z,5.10
2023-02-06T02:13:34.241Z,5.10
2023-02-06T02:16:11.027Z,5.00
2023-02-06T02:18:57.454Z,5.10
2023-02-06T02:21:53.213Z,5.10
2023-02-06T02:24:33.261Z,5.10
2023-02-06T02:27:20.145Z,5.10
2023-02-06T02:30:26.712Z,5.00
2023-02-06T02:33:27.339Z,5.10
2023-02-06T02:36:07.371Z,5.10
2023-02-06T02:38:47.415Z,5.20
2023-02-06T02:41:22.289Z,5.20
2023-02-06T02:43:56.101Z,5.10
2023-02-06T02:46:28.907Z,5.10
2023-02-06T02:49:04.222Z,5.10
2023-02-06T02:51:35.072Z,5.10
2023-02-06T02:54:03.272Z,5.10
2023-02-06T02:56:33.432Z,5.10
2023-02-06T02:59:04.899Z,5.00
2023-02-06T03:01:37.881Z,5.00
2023-02-06T03:04:09.692Z,5.00
2023-02-06T03:07:03.967Z,4.90
2023-02-06T03:09:45.977Z,4.90
2023-02-06T03:12:21.305Z,4.90
2023-02-06T03:14:56.630Z,4.80
2023-02-06T03:17:32.643Z,4.70
2023-02-06T03:20:03.635Z,4.70
2023-02-06T03:22:35.631Z,4.70
2023-02-06T03:25:06.403Z,4.70
2023-02-06T03:27:35.652Z,4.60
2023-02-06T03:30:05.304Z,4.50
2023-02-06T03:32:37.800Z,4.60
2023-02-06T03:35:11.613Z,4.60
2023-02-06T03:37:41.120Z,4.50
2023-02-06T03:40:10.747Z,4.50
2023-02-06T03:42:43.163Z,4.50
2023-02-06T03:45:16.866Z,4.50
2023-02-06T03:47:47.572Z,4.50
2023-02-06T03:50:16.667Z,4.50
2023-02-06T03:52:49.029Z,4.60
2023-02-06T03:55:21.074Z,4.60
2023-02-06T03:57:52.725Z,4.60
2023-02-06T04:00:21.296Z,4.60
2023-02-06T04:02:49.931Z,4.60
2023-02-06T04:05:19.392Z,4.60
2023-02-06T04:07:48.754Z,4.60
2023-02-06T04:10:16.848Z,4.60
2023-02-06T04:12:44.809Z,4.60
2023-02-06T04:15:12.779Z,4.60
2023-02-06T04:17:57.424Z,4.50
2023-02-06T04:20:25.857Z,4.50
2023-02-06T04:22:55.506Z,4.50
2023-02-06T04:25:23.448Z,4.50
2023-02-06T04:27:51.723Z,4.50
2023-02-06T04:30:20.016Z,4.50
2023-02-06T04:32:48.099Z,4.50
2023-02-06T04:35:16.136Z,4.40
2023-02-06T04:37:44.067Z,4.80
2023-02-06T04:40:14.079Z,4.40
2023-02-06T04:42:42.152Z,4.50
2023-02-06T04:45:10.924Z,4.40
2023-02-06T04:47:39.182Z,4.40
2023-02-06T04:50:07.876Z,4.40
2023-02-06T04:52:35.819Z,4.50
2023-02-06T04:55:03.787Z,4.50
2023-02-06T04:57:33.136Z,4.50
2023-02-06T05:00:01.088Z,4.50
2023-02-06T05:02:29.124Z,4.50
2023-02-06T05:04:57.256Z,4.50
2023-02-06T05:07:25.276Z,4.60
2023-02-06T05:09:53.243Z,4.60
2023-02-06T05:12:21.181Z,4.60
2023-02-06T05:14:50.751Z,4.60
2023-02-06T05:17:18.710Z,4.50
2023-02-06T05:19:46.748Z,4.50
2023-02-06T05:22:14.672Z,4.40
2023-02-06T05:24:42.598Z,4.40
2023-02-06T05:27:10.510Z,4.40
2023-02-06T05:29:38.451Z,4.30
2023-02-06T05:32:07.947Z,4.30
2023-02-06T05:34:35.894Z,4.30
2023-02-06T05:37:03.942Z,4.20
2023-02-06T05:39:31.940Z,4.20
2023-02-06T05:41:59.857Z,4.10
2023-02-06T05:44:27.929Z,4.00
2023-02-06T05:46:55.925Z,4.00
2023-02-06T05:49:25.248Z,4.00
2023-02-06T05:51:53.194Z,3.80
2023-02-06T05:54:21.200Z,3.80
2023-02-06T05:56:49.121Z,3.80
2023-02-06T05:59:17.332Z,3.80
2023-02-06T06:01:46.082Z,3.80
2023-02-06T06:04:14.097Z,3.80
2023-02-06T06:06:43.508Z,3.90
2023-02-06T06:09:11.440Z,3.90
2023-02-06T06:11:39.814Z,3.90
2023-02-06T06:14:07.890Z,3.90
2023-02-06T06:16:36.094Z,3.90
2023-02-06T06:19:04.278Z,4.00
2023-02-06T06:21:32.193Z,4.00
2023-02-06T06:24:01.752Z,4.00
2023-02-06T06:26:29.781Z,4.00
2023-02-06T06:28:58.075Z,4.00
2023-02-06T06:31:26.048Z,4.00
2023-02-06T06:33:54.275Z,4.00
2023-02-06T06:36:22.393Z,4.00
2023-02-06T06:38:50.507Z,4.10
2023-02-06T06:41:19.909Z,4.00
2023-02-06T06:43:49.103Z,4.00
2023-02-06T06:46:18.953Z,4.00
2023-02-06T06:48:46.916Z,4.00
2023-02-06T06:51:14.935Z,4.30
2023-02-06T06:53:43.065Z,4.00
2023-02-06T06:56:14.403Z,4.00
2023-02-06T06:58:43.929Z,4.00
2023-02-06T07:01:12.062Z,4.00
2023-02-06T07:03:40.020Z,4.00
2023-02-06T07:06:08.233Z,4.00
2023-02-06T07:08:41.676Z,4.00
2023-02-06T07:11:09.664Z,4.00
2023-02-06T07:13:37.894Z,4.00
2023-02-06T07:16:07.594Z,4.00
2023-02-06T07:18:35.966Z,4.00
2023-02-06T07:21:04.392Z,4.00
2023-02-06T07:23:32.440Z,4.00
2023-02-06T07:26:02.253Z,3.80
2023-02-06T07:28:30.420Z,3.80
2023-02-06T07:31:01.538Z,3.80
2023-02-06T07:33:31.563Z,3.80
2023-02-06T07:36:01.692Z,3.70
2023-02-06T07:38:30.581Z,3.70
2023-02-06T07:41:02.360Z,3.80
2023-02-06T07:43:30.906Z,3.70
2023-02-06T07:46:00.903Z,3.70
2023-02-06T07:48:31.016Z,3.80
2023-02-06T07:51:04.686Z,3.80
2023-02-06T07:53:32.708Z,3.90
2023-02-06T07:56:00.879Z,4.10
2023-02-06T07:58:28.882Z,3.90
2023-02-06T08:00:59.755Z,4.00
2023-02-06T08:03:27.837Z,4.00
2023-02-06T08:05:57.176Z,4.00
2023-02-06T08:08:25.821Z,4.00
2023-02-06T08:10:54.006Z,4.10
2023-02-06T08:13:22.024Z,4.10
2023-02-06T08:15:50.060Z,4.10
2023-02-06T08:18:17.994Z,4.20
2023-02-06T08:20:45.977Z,4.20
2023-02-06T08:23:15.319Z,4.40
2023-02-06T08:25:43.307Z,4.30
2023-02-06T08:28:14.869Z,4.30
2023-02-06T08:30:43.223Z,4.20
2023-02-06T08:33:11.253Z,4.30
2023-02-06T08:35:39.178Z,4.30
2023-02-06T08:38:07.106Z,4.30
2023-02-06T08:40:36.383Z,4.40
2023-02-06T08:43:04.448Z,4.40
2023-02-06T08:45:32.559Z,4.40
2023-02-06T08:48:02.837Z,4.50
2023-02-06T08:50:30.986Z,4.50
2023-02-06T08:52:59.903Z,4.60
2023-02-06T08:55:27.922Z,4.60
2023-02-06T08:57:57.383Z,4.60
2023-02-06T09:00:25.410Z,4.60
2023-02-06T09:02:54.144Z,4.60
2023-02-06T09:05:22.877Z,4.60
2023-02-06T09:07:51.666Z,4.60
2023-02-06T09:10:27.374Z,4.50
2023-02-06T09:12:57.615Z,4.50
2023-02-06T09:15:25.618Z,4.50
2023-02-06T09:17:53.604Z,4.50
2023-02-06T09:20:22.563Z,4.50
2023-02-06T09:22:50.534Z,4.50
2023-02-06T09:25:18.546Z,4.50
2023-02-06T09:27:47.327Z,4.50
2023-02-06T09:30:17.088Z,4.50
2023-02-06T09:32:45.366Z,4.60
2023-02-06T09:35:13.399Z,4.60
2023-02-06T09:37:41.336Z,4.60
2023-02-06T09:40:13.296Z,4.70
2023-02-06T09:42:43.223Z,4.70
2023-02-06T09:45:18.595Z,4.70
2023-02-06T09:47:49.122Z,4.80
2023-02-06T09:50:25.215Z,4.80
2023-02-06T09:53:04.096Z,4.90
2023-02-06T09:55:38.627Z,5.00
2023-02-06T09:58:20.650Z,4.90
2023-02-06T10:00:54.535Z,4.90
2023-02-06T10:03:43.644Z,5.00
2023-02-06T10:06:19.136Z,5.00
2023-02-06T10:08:54.451Z,5.10
2023-02-06T10:11:33.524Z,5.10
2023-02-06T10:14:04.961Z,5.10
2023-02-06T10:16:40.848Z,5.10
2023-02-06T10:19:15.791Z,5.10
2023-02-06T10:21:48.634Z,5.10
2023-02-06T10:24:24.786Z,5.10
2023-02-06T10:26:54.547Z,5.10
2023-02-06T10:29:28.508Z,5.10
2023-02-06T10:32:08.935Z,5.20
2023-02-06T10:34:49.619Z,5.30
2023-02-06T10:37:36.572Z,5.50
2023-02-06T10:40:20.328Z,5.60
2023-02-06T10:42:55.798Z,5.70
2023-02-06T10:45:36.044Z,5.80
2023-02-06T10:48:14.286Z,5.80
2023-02-06T10:50:47.692Z,5.90
2023-02-06T10:53:20.877Z,5.60
2023-02-06T10:55:55.508Z,5.60
2023-02-06T10:58:26.613Z,5.60
2023-02-06T11:00:55.690Z,5.40
2023-02-06T11:03:30.501Z,5.30
2023-02-06T11:05:59.532Z,5.20
2023-02-06T11:08:30.344Z,5.10
2023-02-06T11:10:58.921Z,5.00
2023-02-06T11:13:29.169Z,5.10
2023-02-06T11:16:02.520Z,5.10
2023-02-06T11:18:37.704Z,5.10
2023-02-06T11:21:07.032Z,5.20
2023-02-06T11:23:35.128Z,5.10
2023-02-06T11:26:13.822Z,5.10
2023-02-06T11:28:52.318Z,5.20
2023-02-06T11:31:22.063Z,5.00
2023-02-06T11:33:53.468Z,5.10
2023-02-06T11:36:27.994Z,5.20
2023-02-06T11:38:58.164Z,5.40
2023-02-06T11:41:26.518Z,5.60
2023-02-06T11:44:02.339Z,5.80
2023-02-06T11:46:32.410Z,6.00
2023-02-06T11:49:07.760Z,6.00
2023-02-06T11:51:53.959Z,6.20
2023-02-06T11:54:27.915Z,6.30
2023-02-06T11:57:03.136Z,6.40
2023-02-06T11:59:34.321Z,6.50
2023-02-06T12:02:05.654Z,6.50
2023-02-06T12:04:39.088Z,6.60
2023-02-06T12:07:14.998Z,6.70
2023-02-06T12:09:43.048Z,6.80
2023-02-06T12:12:20.711Z,7.10
2023-02-06T12:14:54.669Z,6.90
2023-02-06T12:17:29.094Z,6.90
2023-02-06T12:20:04.890Z,6.90
2023-02-06T12:22:40.205Z,6.90
2023-02-06T12:25:23.700Z,7.00
2023-02-06T12:27:53.364Z,6.90
2023-02-06T12:30:35.704Z,6.80
2023-02-06T12:33:10.779Z,6.70
2023-02-06T12:35:46.458Z,6.70
2023-02-06T12:38:22.925Z,6.70
2023-02-06T12:40:59.899Z,6.60
2023-02-06T12:43:29.790Z,6.50
2023-02-06T12:46:02.774Z,6.40
2023-02-06T12:48:38.882Z,6.20
2023-02-06T12:51:17.571Z,6.10
2023-02-06T12:53:49.928Z,6.10
2023-02-06T12:56:26.236Z,6.00
2023-02-06T12:59:03.263Z,5.80
2023-02-06T13:01:42.995Z,5.90
2023-02-06T13:04:15.222Z,5.80
2023-02-06T13:06:53.319Z,5.90
2023-02-06T13:09:27.109Z,6.00
2023-02-06T13:11:55.423Z,6.10
2023-02-06T13:14:27.793Z,6.20
2023-02-06T13:16:59.223Z,6.30
2023-02-06T13:19:50.452Z,6.40
2023-02-06T13:22:49.460Z,6.60
2023-02-06T13:25:54.306Z,6.80
2023-02-06T13:28:58.683Z,6.90
2023-02-06T13:31:33.657Z,6.90
2023-02-06T13:34:06.471Z,6.70
2023-02-06T13:36:47.661Z,6.70
2023-02-06T13:39:26.512Z,6.60
2023-02-06T13:41:55.078Z,6.50
2023-02-06T13:44:29.142Z,6.40
2023-02-06T13:47:32.277Z,6.20
2023-02-06T13:50:38.550Z,6.00
2023-02-06T13:53:37.579Z,5.80
2023-02-06T13:56:47.824Z,5.80
2023-02-06T13:59:19.595Z,5.60
2023-02-06T14:01:47.856Z,5.60
2023-02-06T14:04:22.801Z,5.60
2023-02-06T14:07:08.816Z,5.60
2023-02-06T14:10:05.156Z,5.70
2023-02-06T14:12:49.720Z,5.70
2023-02-06T14:15:43.078Z,5.80
2023-02-06T14:18:30.247Z,5.80
2023-02-06T14:21:09.556Z,5.70
2023-02-06T14:23:51.102Z,5.70
2023-02-06T14:26:30.710Z,5.60
2023-02-06T14:29:08.356Z,5.50
2023-02-06T14:31:57.704Z,5.40
2023-02-06T14:34:36.936Z,5.30
2023-02-06T14:37:21.516Z,5.30
2023-02-06T14:39:52.375Z,5.20
2023-02-06T14:42:25.261Z,5.20
2023-02-06T14:44:58.460Z,5.20
2023-02-06T14:47:30.392Z,5.30
2023-02-06T14:50:00.544Z,5.20
2023-02-06T14:52:33.148Z,5.20
2023-02-06T14:55:01.461Z,5.20
2023-02-06T14:57:31.531Z,5.20
2023-02-06T15:00:14.290Z,5.20
2023-02-06T15:02:42.253Z,5.30
2023-02-06T15:05:25.232Z,5.20
2023-02-06T15:07:58.680Z,5.10
2023-02-06T15:10:30.345Z,5.10
2023-02-06T15:12:58.544Z,5.10
2023-02-06T15:15:29.715Z,5.20
2023-02-06T15:18:00.299Z,5.20
2023-02-06T15:20:31.654Z,5.30
2023-02-06T15:23:17.014Z,5.30
2023-02-06T15:25:58.186Z,5.40
2023-02-06T15:28:31.482Z,5.40
2023-02-06T15:31:02.287Z,5.50
2023-02-06T15:33:33.137Z,5.60
2023-02-06T15:36:03.625Z,5.50
2023-02-06T15:38:34.015Z,5.50
2023-02-06T15:41:04.325Z,5.40
2023-02-06T15:43:34.104Z,5.40
2023-02-06T15:46:06.285Z,5.50
2023-02-06T15:48:38.067Z,5.40
2023-02-06T15:51:20.595Z,5.30
2023-02-06T15:53:49.484Z,5.30
2023-02-06T15:56:26.045Z,5.20
2023-02-06T15:58:59.966Z,5.20
2023-02-06T16:01:32.040Z,5.10
2023-02-06T16:04:04.693Z,5.00
2023-02-06T16:06:32.727Z,4.90
2023-02-06T16:09:06.226Z,4.90
2023-02-06T16:11:50.883Z,4.80
2023-02-06T16:14:24.032Z,4.80
2023-02-06T16:17:02.232Z,4.70
2023-02-06T16:19:42.583Z,4.70
2023-02-06T16:22:22.846Z,4.70
2023-02-06T16:24:52.993Z,4.60
2023-02-06T16:27:23.329Z,4.70
2023-02-06T16:29:53.849Z,4.50
2023-02-06T16:32:26.637Z,4.40
2023-02-06T16:34:55.585Z,4.40
2023-02-06T16:37:25.188Z,4.30
2023-02-06T16:39:54.221Z,4.30
2023-02-06T16:42:24.167Z,4.20
2023-02-06T16:44:54.864Z,4.20
2023-02-06T16:47:24.915Z,4.50
2023-02-06T16:49:53.094Z,4.10
2023-02-06T16:52:23.810Z,4.00
2023-02-06T16:54:51.977Z,3.90
2023-02-06T16:57:27.064Z,3.80
2023-02-06T16:59:54.996Z,3.70
2023-02-06T17:02:24.748Z,4.00
2023-02-06T17:04:52.737Z,3.70
2023-02-06T17:07:23.879Z,3.70
2023-02-06T17:09:54.119Z,3.60
2023-02-06T17:12:23.404Z,3.50
2023-02-06T17:14:51.747Z,3.60
2023-02-06T17:17:21.588Z,3.50
2023-02-06T17:19:52.328Z,3.50
2023-02-06T17:22:20.955Z,3.50
2023-02-06T17:24:49.080Z,3.50
2023-02-06T17:27:19.946Z,3.40
2023-02-06T17:29:48.932Z,3.40
2023-02-06T17:32:21.679Z,3.40
2023-02-06T17:34:54.084Z,3.40
2023-02-06T17:37:22.312Z,3.30
2023-02-06T17:39:51.104Z,3.30
2023-02-06T17:42:19.093Z,3.30
2023-02-06T17:44:47.147Z,3.30
2023-02-06T17:47:15.131Z,3.30
2023-02-06T17:49:43.100Z,3.20
2023-02-06T17:52:12.378Z,3.20
2023-02-06T17:54:41.080Z,3.20
2023-02-06T17:57:09.150Z,3.10
2023-02-06T17:59:37.143Z,3.10
2023-02-06T18:02:05.077Z,3.00
2023-02-06T18:04:33.017Z,3.00
2023-02-06T18:07:00.978Z,2.90
2023-02-06T18:09:30.315Z,3.10
2023-02-06T18:11:58.354Z,2.90
2023-02-06T18:14:26.348Z,2.80
2023-02-06T18:16:54.509Z,2.70
2023-02-06T18:19:24.810Z,2.70
2023-02-06T18:21:53.064Z,2.70
2023-02-06T18:24:21.038Z,2.70
2023-02-06T18:26:50.394Z,2.70
2023-02-06T18:29:18.549Z,2.80
2023-02-06T18:31:46.934Z,2.90
2023-02-06T18:34:14.922Z,3.00
2023-02-06T18:36:42.913Z,3.10
2023-02-06T18:39:12.053Z,3.20
2023-02-06T18:41:57.602Z,3.20
2023-02-06T18:44:26.978Z,3.20
2023-02-06T18:46:55.130Z,3.20
2023-02-06T18:49:23.087Z,3.40
2023-02-06T18:51:51.109Z,3.20
2023-02-06T18:54:19.122Z,3.20
2023-02-06T18:56:49.472Z,3.30
2023-02-06T18:59:17.704Z,3.30
2023-02-06T19:01:47.378Z,3.40
2023-02-06T19:04:15.497Z,3.40
2023-02-06T19:06:44.590Z,3.50
2023-02-06T19:09:13.416Z,3.50
2023-02-06T19:11:42.861Z,3.60
2023-02-06T19:14:15.180Z,3.50
2023-02-06T19:16:44.535Z,3.50
2023-02-06T19:19:14.260Z,3.50
2023-02-06T19:21:42.417Z,3.50
2023-02-06T19:24:13.250Z,3.50
2023-02-06T19:26:41.777Z,3.50
2023-02-06T19:29:10.663Z,3.40
2023-02-06T19:31:40.491Z,3.40
2023-02-06T19:34:08.580Z,3.40
2023-02-06T19:36:38.050Z,3.30
2023-02-06T19:39:12.102Z,3.20
2023-02-06T19:41:40.575Z,3.10
2023-02-06T19:44:12.223Z,3.00
2023-02-06T19:46:41.073Z,3.00
2023-02-06T19:49:09.562Z,3.10
2023-02-06T19:51:40.928Z,3.10
2023-02-06T19:54:10.824Z,3.20
2023-02-06T19:56:43.655Z,3.20
2023-02-06T19:59:18.046Z,3.20
2023-02-06T20:01:46.680Z,3.10
2023-02-06T20:04:14.758Z,3.00
2023-02-06T20:06:44.923Z,2.80
2023-02-06T20:09:14.777Z,2.70
2023-02-06T20:11:43.709Z,2.70
2023-02-06T20:14:12.626Z,2.60
2023-02-06T20:16:42.294Z,2.60
2023-02-06T20:19:13.104Z,2.40
2023-02-06T20:21:44.658Z,2.30
2023-02-06T20:24:18.398Z,2.20
2023-02-06T20:26:46.739Z,2.20
2023-02-06T20:29:21.540Z,2.10
2023-02-06T20:31:50.413Z,2.10
2023-02-06T20:34:19.370Z,2.00
2023-02-06T20:36:51.956Z,2.00
2023-02-06T20:39:19.986Z,2.00
2023-02-06T20:41:49.501Z,2.00
2023-02-06T20:44:19.145Z,2.10
2023-02-06T20:46:47.628Z,2.10
2023-02-06T20:49:19.293Z,2.20
2023-02-06T20:51:49.959Z,2.30
2023-02-06T20:54:18.714Z,2.30
2023-02-06T20:56:46.792Z,2.40
2023-02-06T20:59:16.591Z,2.40
2023-02-06T21:01:45.035Z,2.40
2023-02-06T21:04:14.996Z,2.50
2023-02-06T21:06:44.101Z,2.50
2023-02-06T21:09:13.458Z,2.50
2023-02-06T21:11:44.220Z,2.50
2023-02-06T21:14:13.491Z,2.50
2023-02-06T21:16:42.402Z,2.40
2023-02-06T21:19:11.787Z,2.30
2023-02-06T21:21:39.876Z,2.20
2023-02-06T21:24:09.720Z,2.10
2023-02-06T21:26:39.267Z,2.00
2023-02-06T21:29:07.748Z,1.90
2023-02-06T21:31:38.947Z,1.90
2023-02-06T21:34:14.716Z,1.80
2023-02-06T21:36:43.642Z,1.70
2023-02-06T21:39:17.363Z,1.70
2023-02-06T21:41:51.517Z,1.60
2023-02-06T21:44:19.726Z,1.60
2023-02-06T21:46:47.885Z,1.60
2023-02-06T21:49:16.038Z,1.60
2023-02-06T21:51:44.603Z,1.50
2023-02-06T21:54:12.602Z,2.60
2023-02-06T21:56:40.675Z,1.50
2023-02-06T21:59:11.128Z,1.90
2023-02-06T22:01:40.798Z,1.40
2023-02-06T22:04:15.221Z,1.40
2023-02-06T22:06:43.638Z,1.30
2023-02-06T22:09:16.362Z,1.70
2023-02-06T22:11:45.779Z,1.30
2023-02-06T22:14:17.462Z,1.50
2023-02-06T22:16:47.146Z,1.20
2023-02-06T22:19:16.227Z,1.20
2023-02-06T22:21:44.340Z,1.20
2023-02-06T22:24:14.400Z,1.20
2023-02-06T22:26:44.112Z,1.10
2023-02-06T22:29:15.040Z,1.10
2023-02-06T22:31:46.215Z,1.10
2023-02-06T22:34:17.029Z,0.90
2023-02-06T22:36:45.796Z,0.90
2023-02-06T22:39:15.678Z,0.90
2023-02-06T22:41:45.456Z,0.90
2023-02-06T22:44:16.508Z,0.80
2023-02-06T22:46:51.245Z,0.80
2023-02-06T22:49:21.149Z,1.50
2023-02-06T22:51:50.236Z,-0.40
2023-02-06T22:54:18.563Z,0.70
2023-02-06T22:56:47.179Z,0.70
2023-02-06T22:59:17.863Z,0.70
2023-02-06T23:01:48.749Z,0.60
2023-02-06T23:04:19.125Z,0.60
2023-02-06T23:06:47.860Z,1.30
2023-02-06T23:09:18.583Z,0.60
2023-02-06T23:11:48.249Z,0.50
2023-02-06T23:14:17.917Z,0.50
2023-02-06T23:16:48.385Z,0.50
2023-02-06T23:19:17.860Z,0.50
2023-02-06T23:21:47.499Z,0.50
2023-02-06T23:24:17.190Z,0.50
2023-02-06T23:26:47.778Z,0.60
2023-02-06T23:29:17.732Z,1.10
2023-02-06T23:31:48.012Z,0.80
2023-02-06T23:34:17.779Z,0.90
2023-02-06T23:36:47.099Z,0.90
2023-02-06T23:39:15.184Z,1.00
2023-02-06T23:41:44.609Z,1.40
2023-02-06T23:44:13.315Z,1.00
2023-02-06T23:46:42.234Z,1.10
2023-02-06T23:49:12.165Z,1.10
2023-02-06T23:51:40.503Z,1.20
2023-02-06T23:54:09.449Z,1.10
2023-02-06T23:56:38.181Z,1.00
2023-02-06T23:59:07.214Z,0.90
